Airfield :
LOGIN :

Register | Disclaimer

   EN    FR    IT 

 










Legend :    VFR   Marginal VFR   IFR   Intensive IFR   Very Intensive IFR
Visi :
Ceiling :
>= 8 km
>= 3000ft
5 to 8 km
1000 to 3000 ft
1500m to 5 km
500 to 1000 ft
800 to 1500m
200 to 500 ft
< 800m
< 200 ft
Symbols :   Thunderstorms  Fog  Heavy snow  Heavy precipitations  Wind > 20 kt
SIGMETs :     Misc.  Thunderstorms  Icing  Turbulence  Mountain Waves  Volcanic Ashes







- Airport Elevation : 17 ft
- IATA code : CPH


EKCH - København - Kastrup (Copenhagen)

CURRENT METAR :
  • 200050Z 22013KT CAVOK 19/16 Q1012 NOSIG

EXPIRED METARs :
  • 200020Z 22014KT CAVOK 19/16 Q1012 NOSIG
  • 192350Z 21011KT CAVOK 20/15 Q1012 NOSIG
  • 192320Z 21011KT CAVOK 20/15 Q1013 NOSIG
  • 192250Z 20010KT CAVOK 20/16 Q1013 NOSIG
  • 192224Z 19011KT 9999 BKN047 20/16 Q1013 NOSIG

TAF TAF EKCH
Valid from the 20 at 00:00 until the 21 at 00:00 UTC


192304Z 2000/2024 20010KT 9999 BKN025
TEMPO 2002/2009 -RADZ BKN008
BECMG 2006/2009 29015KT
No reported NOTAMs for that airfield.



MET'MAP, your aeronautical weather chart ! - Copyright ORBIFLY December 2007 - Disclaimer

ORBIFLY MET'MAP TEAM :

Programming & Development : Alexandra Zaïnal
Concept & Development : Baudouin d'Aumeries
Co-Development & Prog : Marc-Olivier Méhu
Technical & hardware support : Manuel Goepfert

Contact : metmap@orbifly.com




SOURCES & CREDITS :

   NOAA